sensor_id;sensor_type;location;lat;lon;timestamp;P1;durP1;ratioP1;P2;durP2;ratioP2
43429;SDS011;29028;43.234;27.896;2022-12-18T14:36:14;14.63;;;8.32;;
43429;SDS011;29028;43.234;27.896;2022-12-18T14:36:38;14.40;;;9.52;;
43429;SDS011;29028;43.234;27.896;2022-12-18T14:37:00;13.82;;;8.75;;
43429;SDS011;29028;43.234;27.896;2022-12-18T14:37:21;13.70;;;9.07;;
43429;SDS011;29028;43.234;27.896;2022-12-18T14:37:44;12.43;;;9.73;;
43429;SDS011;29028;43.234;27.896;2022-12-18T14:38:09;13.05;;;9.85;;
43429;SDS011;29028;43.234;27.896;2022-12-18T14:38:37;13.43;;;10.10;;
43429;SDS011;29028;43.234;27.896;2022-12-18T14:39:00;14.43;;;10.30;;
43429;SDS011;29028;43.234;27.896;2022-12-18T14:39:20;12.20;;;9.82;;
43429;SDS011;29028;43.234;27.896;2022-12-18T14:39:51;13.23;;;9.90;;
43429;SDS011;29028;43.234;27.896;2022-12-18T14:40:13;12.02;;;9.65;;
43429;SDS011;29028;43.234;27.896;2022-12-18T14:40:35;12.60;;;9.55;;
43429;SDS011;29028;43.234;27.896;2022-12-18T14:40:57;12.50;;;9.52;;
43429;SDS011;29028;43.234;27.896;2022-12-18T14:41:20;12.88;;;9.68;;
43429;SDS011;29028;43.234;27.896;2022-12-18T14:41:43;13.07;;;9.27;;
43429;SDS011;29028;43.234;27.896;2022-12-18T14:42:03;13.00;;;9.23;;
43429;SDS011;29028;43.234;27.896;2022-12-18T14:42:30;12.93;;;9.35;;
43429;SDS011;29028;43.234;27.896;2022-12-18T14:42:53;13.45;;;9.77;;
43429;SDS011;29028;43.234;27.896;2022-12-18T14:43:14;13.48;;;9.82;;
43429;SDS011;29028;43.234;27.896;2022-12-18T14:43:35;12.25;;;9.60;;
43429;SDS011;29028;43.234;27.896;2022-12-18T14:44:04;13.48;;;10.07;;
43429;SDS011;29028;43.234;27.896;2022-12-18T14:44:26;12.60;;;10.05;;
43429;SDS011;29028;43.234;27.896;2022-12-18T14:44:47;12.87;;;10.07;;
43429;SDS011;29028;43.234;27.896;2022-12-18T14:45:32;14.57;;;9.60;;
43429;SDS011;29028;43.234;27.896;2022-12-18T14:46:01;12.23;;;10.00;;
43429;SDS011;29028;43.234;27.896;2022-12-18T14:46:26;14.45;;;9.85;;
43429;SDS011;29028;43.234;27.896;2022-12-18T14:46:50;12.38;;;9.65;;
43429;SDS011;29028;43.234;27.896;2022-12-18T14:47:13;11.90;;;9.77;;
43429;SDS011;29028;43.234;27.896;2022-12-18T14:47:36;14.88;;;10.65;;
43429;SDS011;29028;43.234;27.896;2022-12-18T14:47:57;14.23;;;11.18;;
43429;SDS011;29028;43.234;27.896;2022-12-18T14:48:19;13.75;;;11.35;;
43429;SDS011;29028;43.234;27.896;2022-12-18T14:48:41;14.95;;;11.10;;
43429;SDS011;29028;43.234;27.896;2022-12-18T14:49:04;12.98;;;10.20;;
43429;SDS011;29028;43.234;27.896;2022-12-18T14:49:39;13.63;;;10.57;;
43429;SDS011;29028;43.234;27.896;2022-12-18T14:50:03;12.88;;;10.95;;
43429;SDS011;29028;43.234;27.896;2022-12-18T14:50:32;15.27;;;11.57;;
43429;SDS011;29028;43.234;27.896;2022-12-18T14:50:54;14.40;;;10.95;;
43429;SDS011;29028;43.234;27.896;2022-12-18T14:51:19;14.30;;;11.00;;
43429;SDS011;29028;43.234;27.896;2022-12-18T14:51:47;14.00;;;10.70;;
43429;SDS011;29028;43.234;27.896;2022-12-18T14:52:18;17.95;;;12.10;;
43429;SDS011;29028;43.234;27.896;2022-12-18T14:52:44;17.65;;;11.77;;
43429;SDS011;29028;43.234;27.896;2022-12-18T14:53:05;14.98;;;11.38;;
43429;SDS011;29028;43.234;27.896;2022-12-18T14:53:36;16.90;;;11.02;;
43429;SDS011;29028;43.234;27.896;2022-12-18T14:54:00;13.75;;;10.43;;
43429;SDS011;29028;43.234;27.896;2022-12-18T14:54:24;13.95;;;10.80;;
43429;SDS011;29028;43.234;27.896;2022-12-18T14:54:46;14.60;;;11.07;;
43429;SDS011;29028;43.234;27.896;2022-12-18T14:55:14;14.68;;;10.98;;
43429;SDS011;29028;43.234;27.896;2022-12-18T14:55:35;14.23;;;11.00;;
43429;SDS011;29028;43.234;27.896;2022-12-18T14:55:56;14.02;;;10.98;;
43429;SDS011;29028;43.234;27.896;2022-12-18T14:56:17;15.90;;;11.05;;
43429;SDS011;29028;43.234;27.896;2022-12-18T14:56:43;15.07;;;11.00;;
43429;SDS011;29028;43.234;27.896;2022-12-18T14:57:06;16.13;;;11.80;;
43429;SDS011;29028;43.234;27.896;2022-12-18T14:57:41;14.02;;;10.48;;
43429;SDS011;29028;43.234;27.896;2022-12-18T14:58:04;13.65;;;10.18;;
43429;SDS011;29028;43.234;27.896;2022-12-18T14:58:25;14.23;;;10.52;;
43429;SDS011;29028;43.234;27.896;2022-12-18T14:58:47;14.88;;;10.18;;
43429;SDS011;29028;43.234;27.896;2022-12-18T14:59:12;14.20;;;10.00;;
43429;SDS011;29028;43.234;27.896;2022-12-18T14:59:36;13.45;;;9.85;;
43429;SDS011;29028;43.234;27.896;2022-12-18T15:00:03;12.82;;;9.50;;
43429;SDS011;29028;43.234;27.896;2022-12-18T15:00:25;12.48;;;9.50;;
43429;SDS011;29028;43.234;27.896;2022-12-18T15:00:48;13.30;;;9.70;;
43429;SDS011;29028;43.234;27.896;2022-12-18T15:01:09;12.85;;;10.18;;
43429;SDS011;29028;43.234;27.896;2022-12-18T15:01:44;14.88;;;10.60;;
43429;SDS011;29028;43.234;27.896;2022-12-18T15:02:09;12.43;;;9.57;;
43429;SDS011;29028;43.234;27.896;2022-12-18T15:02:38;14.60;;;9.88;;
43429;SDS011;29028;43.234;27.896;2022-12-18T15:02:59;13.77;;;10.02;;
43429;SDS011;29028;43.234;27.896;2022-12-18T15:03:20;12.77;;;9.82;;
43429;SDS011;29028;43.234;27.896;2022-12-18T15:03:42;13.45;;;9.98;;
43429;SDS011;29028;43.234;27.896;2022-12-18T15:04:05;13.82;;;9.95;;
43429;SDS011;29028;43.234;27.896;2022-12-18T15:04:45;13.20;;;10.02;;
43429;SDS011;29028;43.234;27.896;2022-12-18T15:05:16;13.07;;;10.07;;
43429;SDS011;29028;43.234;27.896;2022-12-18T15:05:39;12.52;;;9.80;;
43429;SDS011;29028;43.234;27.896;2022-12-18T15:06:14;13.45;;;9.90;;
43429;SDS011;29028;43.234;27.896;2022-12-18T15:06:38;14.23;;;10.07;;
43429;SDS011;29028;43.234;27.896;2022-12-18T15:07:02;12.23;;;9.35;;
43429;SDS011;29028;43.234;27.896;2022-12-18T15:07:39;13.57;;;9.95;;
43429;SDS011;29028;43.234;27.896;2022-12-18T15:08:02;12.88;;;9.57;;
43429;SDS011;29028;43.234;27.896;2022-12-18T15:08:30;13.32;;;9.95;;
43429;SDS011;29028;43.234;27.896;2022-12-18T15:08:55;13.15;;;9.85;;
43429;SDS011;29028;43.234;27.896;2022-12-18T15:09:21;13.13;;;9.57;;
43429;SDS011;29028;43.234;27.896;2022-12-18T15:09:44;14.43;;;10.27;;
43429;SDS011;29028;43.234;27.896;2022-12-18T15:10:24;12.15;;;9.30;;
43429;SDS011;29028;43.234;27.896;2022-12-18T15:10:47;11.82;;;9.00;;
43429;SDS011;29028;43.234;27.896;2022-12-18T15:11:23;12.10;;;9.30;;
43429;SDS011;29028;43.234;27.896;2022-12-18T15:11:47;13.48;;;9.57;;
43429;SDS011;29028;43.234;27.896;2022-12-18T15:12:18;12.57;;;9.32;;
43429;SDS011;29028;43.234;27.896;2022-12-18T15:12:46;12.98;;;9.50;;
43429;SDS011;29028;43.234;27.896;2022-12-18T15:13:16;13.15;;;9.30;;
43429;SDS011;29028;43.234;27.896;2022-12-18T15:13:42;12.38;;;9.35;;
43429;SDS011;29028;43.234;27.896;2022-12-18T15:14:23;12.88;;;9.52;;
43429;SDS011;29028;43.234;27.896;2022-12-18T15:14:51;13.75;;;9.65;;
43429;SDS011;29028;43.234;27.896;2022-12-18T15:16:07;12.07;;;9.32;;
43429;SDS011;29028;43.234;27.896;2022-12-18T15:16:33;12.73;;;9.50;;
43429;SDS011;29028;43.234;27.896;2022-12-18T15:16:54;13.10;;;9.68;;
43429;SDS011;29028;43.234;27.896;2022-12-18T15:17:16;12.95;;;9.68;;
43429;SDS011;29028;43.234;27.896;2022-12-18T15:17:39;13.07;;;9.27;;
43429;SDS011;29028;43.234;27.896;2022-12-18T15:18:01;12.98;;;9.43;;
43429;SDS011;29028;43.234;27.896;2022-12-18T15:18:27;14.00;;;9.82;;
43429;SDS011;29028;43.234;27.896;2022-12-18T15:18:52;13.35;;;10.00;;
43429;SDS011;29028;43.234;27.896;2022-12-18T15:19:15;13.65;;;10.23;;
43429;SDS011;29028;43.234;27.896;2022-12-18T15:19:38;14.82;;;10.68;;
43429;SDS011;29028;43.234;27.896;2022-12-18T15:20:01;15.57;;;10.80;;
43429;SDS011;29028;43.234;27.896;2022-12-18T15:20:30;14.27;;;10.77;;
43429;SDS011;29028;43.234;27.896;2022-12-18T15:20:53;15.07;;;11.25;;
43429;SDS011;29028;43.234;27.896;2022-12-18T15:21:16;15.20;;;11.50;;
43429;SDS011;29028;43.234;27.896;2022-12-18T15:21:40;14.30;;;11.07;;
43429;SDS011;29028;43.234;27.896;2022-12-18T15:22:04;16.17;;;11.88;;
43429;SDS011;29028;43.234;27.896;2022-12-18T15:22:36;14.82;;;11.35;;
43429;SDS011;29028;43.234;27.896;2022-12-18T15:22:57;14.60;;;10.77;;
43429;SDS011;29028;43.234;27.896;2022-12-18T15:23:20;15.38;;;11.13;;
43429;SDS011;29028;43.234;27.896;2022-12-18T15:23:46;16.15;;;11.93;;
43429;SDS011;29028;43.234;27.896;2022-12-18T15:24:13;16.60;;;12.00;;
43429;SDS011;29028;43.234;27.896;2022-12-18T15:24:38;16.30;;;11.73;;
43429;SDS011;29028;43.234;27.896;2022-12-18T15:25:00;15.00;;;11.75;;
43429;SDS011;29028;43.234;27.896;2022-12-18T15:25:24;14.20;;;11.30;;
43429;SDS011;29028;43.234;27.896;2022-12-18T15:25:54;15.00;;;11.55;;
43429;SDS011;29028;43.234;27.896;2022-12-18T15:26:18;14.25;;;10.80;;
43429;SDS011;29028;43.234;27.896;2022-12-18T15:26:40;14.88;;;11.20;;
43429;SDS011;29028;43.234;27.896;2022-12-18T15:27:01;15.27;;;11.40;;
43429;SDS011;29028;43.234;27.896;2022-12-18T15:27:23;14.65;;;11.27;;
43429;SDS011;29028;43.234;27.896;2022-12-18T15:27:50;14.60;;;11.13;;
43429;SDS011;29028;43.234;27.896;2022-12-18T15:28:15;15.63;;;11.10;;
43429;SDS011;29028;43.234;27.896;2022-12-18T15:28:43;13.88;;;11.35;;
43429;SDS011;29028;43.234;27.896;2022-12-18T15:29:15;13.63;;;11.23;;
43429;SDS011;29028;43.234;27.896;2022-12-18T15:29:40;15.32;;;11.35;;
43429;SDS011;29028;43.234;27.896;2022-12-18T15:30:39;14.43;;;11.25;;
43429;SDS011;29028;43.234;27.896;2022-12-18T15:31:00;15.10;;;11.07;;
43429;SDS011;29028;43.234;27.896;2022-12-18T15:31:29;15.25;;;11.52;;
43429;SDS011;29028;43.234;27.896;2022-12-18T15:32:00;17.23;;;11.68;;
43429;SDS011;29028;43.234;27.896;2022-12-18T15:32:21;16.83;;;11.57;;
43429;SDS011;29028;43.234;27.896;2022-12-18T15:32:42;16.98;;;11.95;;
43429;SDS011;29028;43.234;27.896;2022-12-18T15:33:16;15.50;;;11.90;;
43429;SDS011;29028;43.234;27.896;2022-12-18T15:33:45;15.45;;;11.18;;
43429;SDS011;29028;43.234;27.896;2022-12-18T15:34:30;14.77;;;11.55;;
43429;SDS011;29028;43.234;27.896;2022-12-18T15:35:01;13.68;;;11.25;;
43429;SDS011;29028;43.234;27.896;2022-12-18T15:35:24;14.38;;;11.35;;
43429;SDS011;29028;43.234;27.896;2022-12-18T15:35:45;13.93;;;11.35;;
43429;SDS011;29028;43.234;27.896;2022-12-18T15:36:08;13.63;;;11.07;;
43429;SDS011;29028;43.234;27.896;2022-12-18T15:36:31;13.10;;;10.90;;
43429;SDS011;29028;43.234;27.896;2022-12-18T15:36:57;14.63;;;10.63;;
43429;SDS011;29028;43.234;27.896;2022-12-18T15:37:18;14.55;;;10.65;;
43429;SDS011;29028;43.234;27.896;2022-12-18T15:37:40;13.95;;;10.93;;
43429;SDS011;29028;43.234;27.896;2022-12-18T15:38:02;13.43;;;10.82;;
43429;SDS011;29028;43.234;27.896;2022-12-18T15:38:23;14.98;;;11.00;;
43429;SDS011;29028;43.234;27.896;2022-12-18T15:38:45;15.00;;;11.10;;
43429;SDS011;29028;43.234;27.896;2022-12-18T15:39:10;15.30;;;11.35;;
43429;SDS011;29028;43.234;27.896;2022-12-18T15:39:32;16.55;;;12.90;;
43429;SDS011;29028;43.234;27.896;2022-12-18T15:39:55;17.02;;;12.98;;
43429;SDS011;29028;43.234;27.896;2022-12-18T15:40:17;16.77;;;12.40;;
43429;SDS011;29028;43.234;27.896;2022-12-18T15:40:39;16.70;;;12.50;;
43429;SDS011;29028;43.234;27.896;2022-12-18T15:41:00;15.60;;;12.55;;
43429;SDS011;29028;43.234;27.896;2022-12-18T15:41:23;14.98;;;12.20;;
43429;SDS011;29028;43.234;27.896;2022-12-18T15:41:44;16.92;;;12.15;;
43429;SDS011;29028;43.234;27.896;2022-12-18T15:42:20;15.63;;;11.75;;
43429;SDS011;29028;43.234;27.896;2022-12-18T15:42:59;16.67;;;12.40;;
43429;SDS011;29028;43.234;27.896;2022-12-18T15:43:38;16.30;;;11.98;;
43429;SDS011;29028;43.234;27.896;2022-12-18T15:43:59;15.77;;;11.87;;
43429;SDS011;29028;43.234;27.896;2022-12-18T15:44:22;15.43;;;11.73;;
43429;SDS011;29028;43.234;27.896;2022-12-18T15:44:45;14.63;;;10.93;;
43429;SDS011;29028;43.234;27.896;2022-12-18T15:45:07;14.32;;;10.73;;
43429;SDS011;29028;43.234;27.896;2022-12-18T15:45:31;14.38;;;11.10;;
43429;SDS011;29028;43.234;27.896;2022-12-18T15:45:53;15.00;;;11.25;;
43429;SDS011;29028;43.234;27.896;2022-12-18T15:46:14;15.37;;;11.50;;
43429;SDS011;29028;43.234;27.896;2022-12-18T15:46:36;16.20;;;11.75;;
43429;SDS011;29028;43.234;27.896;2022-12-18T15:46:58;16.95;;;11.73;;
43429;SDS011;29028;43.234;27.896;2022-12-18T15:47:19;14.85;;;11.52;;
43429;SDS011;29028;43.234;27.896;2022-12-18T15:47:40;15.67;;;11.70;;
43429;SDS011;29028;43.234;27.896;2022-12-18T15:48:01;14.48;;;11.70;;
43429;SDS011;29028;43.234;27.896;2022-12-18T15:48:24;13.68;;;10.48;;
43429;SDS011;29028;43.234;27.896;2022-12-18T15:48:47;14.98;;;10.32;;
43429;SDS011;29028;43.234;27.896;2022-12-18T15:49:09;14.88;;;9.95;;
43429;SDS011;29028;43.234;27.896;2022-12-18T15:49:29;15.73;;;10.07;;
43429;SDS011;29028;43.234;27.896;2022-12-18T15:49:51;13.90;;;10.18;;
43429;SDS011;29028;43.234;27.896;2022-12-18T15:50:12;13.65;;;10.90;;
43429;SDS011;29028;43.234;27.896;2022-12-18T15:50:33;13.98;;;10.50;;
43429;SDS011;29028;43.234;27.896;2022-12-18T15:50:55;13.55;;;10.07;;
43429;SDS011;29028;43.234;27.896;2022-12-18T15:51:19;13.48;;;10.35;;
43429;SDS011;29028;43.234;27.896;2022-12-18T15:51:42;15.43;;;11.00;;
43429;SDS011;29028;43.234;27.896;2022-12-18T15:52:05;14.27;;;10.77;;
43429;SDS011;29028;43.234;27.896;2022-12-18T15:52:27;14.52;;;11.45;;
43429;SDS011;29028;43.234;27.896;2022-12-18T15:52:48;17.13;;;12.32;;
43429;SDS011;29028;43.234;27.896;2022-12-18T15:53:11;15.15;;;12.10;;
43429;SDS011;29028;43.234;27.896;2022-12-18T15:53:32;15.80;;;11.70;;
43429;SDS011;29028;43.234;27.896;2022-12-18T15:53:55;14.05;;;10.95;;
43429;SDS011;29028;43.234;27.896;2022-12-18T15:54:18;13.50;;;10.43;;
43429;SDS011;29028;43.234;27.896;2022-12-18T15:55:00;15.27;;;11.32;;
43429;SDS011;29028;43.234;27.896;2022-12-18T15:55:40;14.07;;;10.68;;
43429;SDS011;29028;43.234;27.896;2022-12-18T15:56:19;14.70;;;11.13;;
43429;SDS011;29028;43.234;27.896;2022-12-18T15:56:58;13.00;;;10.27;;
43429;SDS011;29028;43.234;27.896;2022-12-18T15:57:37;13.77;;;9.77;;
43429;SDS011;29028;43.234;27.896;2022-12-18T15:57:59;14.23;;;10.02;;
43429;SDS011;29028;43.234;27.896;2022-12-18T15:58:20;13.90;;;10.40;;
43429;SDS011;29028;43.234;27.896;2022-12-18T15:58:41;14.90;;;10.80;;
43429;SDS011;29028;43.234;27.896;2022-12-18T15:59:02;14.30;;;10.50;;
43429;SDS011;29028;43.234;27.896;2022-12-18T15:59:24;13.02;;;9.70;;
43429;SDS011;29028;43.234;27.896;2022-12-18T15:59:44;12.90;;;9.95;;
43429;SDS011;29028;43.234;27.896;2022-12-18T16:00:05;13.90;;;10.30;;
43429;SDS011;29028;43.234;27.896;2022-12-18T16:00:32;15.18;;;10.60;;
43429;SDS011;29028;43.234;27.896;2022-12-18T16:00:55;14.10;;;10.38;;
43429;SDS011;29028;43.234;27.896;2022-12-18T16:01:18;15.55;;;10.57;;
43429;SDS011;29028;43.234;27.896;2022-12-18T16:01:41;14.57;;;10.43;;
43429;SDS011;29028;43.234;27.896;2022-12-18T16:02:07;13.73;;;10.68;;
43429;SDS011;29028;43.234;27.896;2022-12-18T16:02:36;13.27;;;9.82;;
43429;SDS011;29028;43.234;27.896;2022-12-18T16:02:57;13.18;;;10.00;;
43429;SDS011;29028;43.234;27.896;2022-12-18T16:03:18;13.32;;;10.35;;
43429;SDS011;29028;43.234;27.896;2022-12-18T16:03:39;13.05;;;10.25;;
43429;SDS011;29028;43.234;27.896;2022-12-18T16:04:00;14.65;;;10.77;;
43429;SDS011;29028;43.234;27.896;2022-12-18T16:04:21;13.73;;;10.63;;
43429;SDS011;29028;43.234;27.896;2022-12-18T16:04:44;13.73;;;10.52;;
43429;SDS011;29028;43.234;27.896;2022-12-18T16:05:08;14.32;;;10.80;;
43429;SDS011;29028;43.234;27.896;2022-12-18T16:05:34;13.82;;;10.90;;
43429;SDS011;29028;43.234;27.896;2022-12-18T16:05:55;15.80;;;11.10;;
43429;SDS011;29028;43.234;27.896;2022-12-18T16:06:18;15.13;;;11.10;;
43429;SDS011;29028;43.234;27.896;2022-12-18T16:06:39;14.43;;;11.23;;
43429;SDS011;29028;43.234;27.896;2022-12-18T16:07:01;15.68;;;11.30;;
43429;SDS011;29028;43.234;27.896;2022-12-18T16:07:24;13.98;;;10.60;;
43429;SDS011;29028;43.234;27.896;2022-12-18T16:07:45;14.63;;;10.85;;
43429;SDS011;29028;43.234;27.896;2022-12-18T16:08:06;17.00;;;12.32;;
43429;SDS011;29028;43.234;27.896;2022-12-18T16:08:26;16.42;;;13.10;;
43429;SDS011;29028;43.234;27.896;2022-12-18T16:08:48;16.83;;;12.88;;
43429;SDS011;29028;43.234;27.896;2022-12-18T16:09:09;14.38;;;11.25;;
43429;SDS011;29028;43.234;27.896;2022-12-18T16:09:30;13.93;;;10.70;;
43429;SDS011;29028;43.234;27.896;2022-12-18T16:09:51;13.63;;;10.23;;
43429;SDS011;29028;43.234;27.896;2022-12-18T16:10:13;13.57;;;10.43;;
43429;SDS011;29028;43.234;27.896;2022-12-18T16:10:34;13.77;;;10.77;;
43429;SDS011;29028;43.234;27.896;2022-12-18T16:10:55;14.38;;;10.98;;
43429;SDS011;29028;43.234;27.896;2022-12-18T16:11:20;13.80;;;10.52;;
43429;SDS011;29028;43.234;27.896;2022-12-18T16:11:57;14.05;;;10.75;;
43429;SDS011;29028;43.234;27.896;2022-12-18T16:12:20;14.70;;;10.70;;
43429;SDS011;29028;43.234;27.896;2022-12-18T16:12:42;14.48;;;11.45;;
43429;SDS011;29028;43.234;27.896;2022-12-18T16:13:03;13.95;;;11.00;;
43429;SDS011;29028;43.234;27.896;2022-12-18T16:13:24;13.85;;;10.35;;
43429;SDS011;29028;43.234;27.896;2022-12-18T16:13:46;14.02;;;10.75;;
43429;SDS011;29028;43.234;27.896;2022-12-18T16:14:12;14.88;;;10.65;;
43429;SDS011;29028;43.234;27.896;2022-12-18T16:14:37;14.18;;;11.10;;
43429;SDS011;29028;43.234;27.896;2022-12-18T16:14:59;13.35;;;10.50;;
43429;SDS011;29028;43.234;27.896;2022-12-18T16:15:20;17.20;;;11.20;;
43429;SDS011;29028;43.234;27.896;2022-12-18T16:15:40;15.70;;;11.30;;
43429;SDS011;29028;43.234;27.896;2022-12-18T16:16:01;13.02;;;10.18;;
43429;SDS011;29028;43.234;27.896;2022-12-18T16:16:23;15.23;;;11.02;;
43429;SDS011;29028;43.234;27.896;2022-12-18T16:16:44;14.98;;;11.32;;
43429;SDS011;29028;43.234;27.896;2022-12-18T16:17:08;16.98;;;11.65;;
43429;SDS011;29028;43.234;27.896;2022-12-18T16:17:30;15.02;;;11.50;;
43429;SDS011;29028;43.234;27.896;2022-12-18T16:17:52;16.25;;;11.57;;
43429;SDS011;29028;43.234;27.896;2022-12-18T16:18:13;15.13;;;11.30;;
43429;SDS011;29028;43.234;27.896;2022-12-18T16:18:34;14.45;;;11.02;;
43429;SDS011;29028;43.234;27.896;2022-12-18T16:18:54;14.27;;;10.77;;
43429;SDS011;29028;43.234;27.896;2022-12-18T16:19:19;13.88;;;10.82;;
43429;SDS011;29028;43.234;27.896;2022-12-18T16:19:41;14.52;;;10.98;;
43429;SDS011;29028;43.234;27.896;2022-12-18T16:20:02;14.18;;;11.18;;
43429;SDS011;29028;43.234;27.896;2022-12-18T16:20:24;14.82;;;11.13;;
43429;SDS011;29028;43.234;27.896;2022-12-18T16:20:45;15.98;;;11.30;;
43429;SDS011;29028;43.234;27.896;2022-12-18T16:21:07;14.77;;;11.23;;
43429;SDS011;29028;43.234;27.896;2022-12-18T16:21:29;15.30;;;11.32;;
43429;SDS011;29028;43.234;27.896;2022-12-18T16:21:50;16.30;;;11.20;;
43429;SDS011;29028;43.234;27.896;2022-12-18T16:22:17;15.15;;;10.88;;
43429;SDS011;29028;43.234;27.896;2022-12-18T16:22:45;16.70;;;11.15;;
43429;SDS011;29028;43.234;27.896;2022-12-18T16:23:07;13.98;;;10.68;;
43429;SDS011;29028;43.234;27.896;2022-12-18T16:23:28;14.57;;;10.70;;
43429;SDS011;29028;43.234;27.896;2022-12-18T16:23:50;15.05;;;10.68;;
43429;SDS011;29028;43.234;27.896;2022-12-18T16:24:13;14.83;;;10.90;;
43429;SDS011;29028;43.234;27.896;2022-12-18T16:24:36;14.20;;;10.35;;
43429;SDS011;29028;43.234;27.896;2022-12-18T16:24:57;14.02;;;10.80;;
43429;SDS011;29028;43.234;27.896;2022-12-18T16:25:22;14.55;;;11.00;;
43429;SDS011;29028;43.234;27.896;2022-12-18T16:25:45;15.43;;;11.18;;
43429;SDS011;29028;43.234;27.896;2022-12-18T16:26:05;14.00;;;10.77;;
43429;SDS011;29028;43.234;27.896;2022-12-18T16:26:27;13.85;;;10.90;;
43429;SDS011;29028;43.234;27.896;2022-12-18T16:26:48;14.55;;;10.85;;
43429;SDS011;29028;43.234;27.896;2022-12-18T16:27:11;14.23;;;10.57;;
43429;SDS011;29028;43.234;27.896;2022-12-18T16:27:32;13.45;;;10.40;;
43429;SDS011;29028;43.234;27.896;2022-12-18T16:27:54;13.65;;;10.70;;
43429;SDS011;29028;43.234;27.896;2022-12-18T16:28:15;14.02;;;10.95;;
43429;SDS011;29028;43.234;27.896;2022-12-18T16:28:36;14.10;;;10.70;;
43429;SDS011;29028;43.234;27.896;2022-12-18T16:28:57;14.35;;;10.85;;
43429;SDS011;29028;43.234;27.896;2022-12-18T16:29:19;14.45;;;11.20;;
43429;SDS011;29028;43.234;27.896;2022-12-18T16:29:44;14.48;;;11.00;;
43429;SDS011;29028;43.234;27.896;2022-12-18T16:30:06;14.45;;;11.50;;
43429;SDS011;29028;43.234;27.896;2022-12-18T16:30:32;14.82;;;10.75;;
43429;SDS011;29028;43.234;27.896;2022-12-18T16:30:54;13.68;;;10.32;;
43429;SDS011;29028;43.234;27.896;2022-12-18T16:31:14;15.38;;;10.95;;
43429;SDS011;29028;43.234;27.896;2022-12-18T16:31:35;14.90;;;11.20;;
43429;SDS011;29028;43.234;27.896;2022-12-18T16:31:56;14.82;;;11.18;;
43429;SDS011;29028;43.234;27.896;2022-12-18T16:32:20;14.60;;;10.98;;
43429;SDS011;29028;43.234;27.896;2022-12-18T16:32:42;14.27;;;10.80;;
43429;SDS011;29028;43.234;27.896;2022-12-18T16:33:03;14.25;;;10.38;;
43429;SDS011;29028;43.234;27.896;2022-12-18T16:33:25;14.65;;;10.70;;
43429;SDS011;29028;43.234;27.896;2022-12-18T16:33:45;15.68;;;11.45;;
43429;SDS011;29028;43.234;27.896;2022-12-18T16:34:10;16.60;;;12.15;;
43429;SDS011;29028;43.234;27.896;2022-12-18T16:34:33;16.30;;;12.65;;
43429;SDS011;29028;43.234;27.896;2022-12-18T16:34:57;16.27;;;12.25;;
43429;SDS011;29028;43.234;27.896;2022-12-18T16:35:19;16.90;;;12.23;;
43429;SDS011;29028;43.234;27.896;2022-12-18T16:35:41;16.08;;;11.98;;
43429;SDS011;29028;43.234;27.896;2022-12-18T16:36:03;16.42;;;11.80;;
43429;SDS011;29028;43.234;27.896;2022-12-18T16:36:24;17.92;;;12.65;;
43429;SDS011;29028;43.234;27.896;2022-12-18T16:36:44;17.57;;;12.40;;
43429;SDS011;29028;43.234;27.896;2022-12-18T16:37:07;17.50;;;12.40;;
43429;SDS011;29028;43.234;27.896;2022-12-18T16:37:29;16.25;;;12.98;;
43429;SDS011;29028;43.234;27.896;2022-12-18T16:37:51;18.17;;;13.95;;
43429;SDS011;29028;43.234;27.896;2022-12-18T16:38:13;17.75;;;13.50;;
43429;SDS011;29028;43.234;27.896;2022-12-18T16:38:34;18.25;;;13.80;;
43429;SDS011;29028;43.234;27.896;2022-12-18T16:38:55;19.70;;;14.13;;
43429;SDS011;29028;43.234;27.896;2022-12-18T16:39:16;18.98;;;14.95;;
43429;SDS011;29028;43.234;27.896;2022-12-18T16:39:38;19.63;;;15.95;;
43429;SDS011;29028;43.234;27.896;2022-12-18T16:40:00;21.15;;;15.57;;
43429;SDS011;29028;43.234;27.896;2022-12-18T16:40:21;18.80;;;14.23;;
43429;SDS011;29028;43.234;27.896;2022-12-18T16:40:42;18.83;;;13.82;;
43429;SDS011;29028;43.234;27.896;2022-12-18T16:41:18;15.50;;;12.18;;
43429;SDS011;29028;43.234;27.896;2022-12-18T16:41:51;16.88;;;13.20;;
43429;SDS011;29028;43.234;27.896;2022-12-18T16:42:13;17.95;;;13.60;;
43429;SDS011;29028;43.234;27.896;2022-12-18T16:42:39;19.35;;;13.95;;
43429;SDS011;29028;43.234;27.896;2022-12-18T16:43:03;18.65;;;12.95;;
43429;SDS011;29028;43.234;27.896;2022-12-18T16:43:24;19.30;;;13.13;;
43429;SDS011;29028;43.234;27.896;2022-12-18T16:43:45;16.17;;;12.87;;
43429;SDS011;29028;43.234;27.896;2022-12-18T16:44:07;16.65;;;13.13;;
43429;SDS011;29028;43.234;27.896;2022-12-18T16:44:27;16.77;;;12.73;;
43429;SDS011;29028;43.234;27.896;2022-12-18T16:44:48;16.73;;;12.75;;
43429;SDS011;29028;43.234;27.896;2022-12-18T16:45:11;15.95;;;12.00;;
43429;SDS011;29028;43.234;27.896;2022-12-18T16:45:33;15.52;;;11.50;;
43429;SDS011;29028;43.234;27.896;2022-12-18T16:45:54;13.73;;;11.07;;
43429;SDS011;29028;43.234;27.896;2022-12-18T16:46:17;15.38;;;11.40;;
43429;SDS011;29028;43.234;27.896;2022-12-18T16:46:38;15.57;;;11.50;;
43429;SDS011;29028;43.234;27.896;2022-12-18T16:46:59;17.50;;;11.90;;
43429;SDS011;29028;43.234;27.896;2022-12-18T16:47:21;17.63;;;12.60;;
43429;SDS011;29028;43.234;27.896;2022-12-18T16:47:43;16.17;;;11.77;;
43429;SDS011;29028;43.234;27.896;2022-12-18T16:48:04;14.65;;;11.05;;
43429;SDS011;29028;43.234;27.896;2022-12-18T16:48:25;15.10;;;11.53;;
43429;SDS011;29028;43.234;27.896;2022-12-18T16:48:46;16.27;;;11.87;;
43429;SDS011;29028;43.234;27.896;2022-12-18T16:49:08;16.17;;;12.23;;
43429;SDS011;29028;43.234;27.896;2022-12-18T16:49:30;15.63;;;12.07;;
43429;SDS011;29028;43.234;27.896;2022-12-18T16:49:51;18.05;;;12.35;;
43429;SDS011;29028;43.234;27.896;2022-12-18T16:50:13;16.70;;;11.68;;
43429;SDS011;29028;43.234;27.896;2022-12-18T16:50:34;16.35;;;11.38;;
43429;SDS011;29028;43.234;27.896;2022-12-18T16:50:56;14.18;;;10.73;;
43429;SDS011;29028;43.234;27.896;2022-12-18T16:51:20;14.82;;;11.05;;
43429;SDS011;29028;43.234;27.896;2022-12-18T16:51:43;14.65;;;10.75;;
43429;SDS011;29028;43.234;27.896;2022-12-18T16:52:04;13.65;;;10.05;;
43429;SDS011;29028;43.234;27.896;2022-12-18T16:52:26;13.23;;;9.55;;
43429;SDS011;29028;43.234;27.896;2022-12-18T16:52:50;13.32;;;9.93;;
43429;SDS011;29028;43.234;27.896;2022-12-18T16:53:11;13.15;;;9.23;;
43429;SDS011;29028;43.234;27.896;2022-12-18T16:53:32;13.47;;;9.80;;
43429;SDS011;29028;43.234;27.896;2022-12-18T16:53:54;13.15;;;9.68;;
43429;SDS011;29028;43.234;27.896;2022-12-18T16:54:15;12.50;;;9.38;;
43429;SDS011;29028;43.234;27.896;2022-12-18T16:54:36;12.63;;;9.30;;
43429;SDS011;29028;43.234;27.896;2022-12-18T16:54:58;13.23;;;9.48;;
43429;SDS011;29028;43.234;27.896;2022-12-18T16:55:19;14.63;;;10.00;;
43429;SDS011;29028;43.234;27.896;2022-12-18T16:55:39;12.35;;;9.55;;
43429;SDS011;29028;43.234;27.896;2022-12-18T16:56:00;11.35;;;8.90;;